sensor_id;sensor_type;location;lat;lon;timestamp;noise_LAeq;noise_LA_min;noise_LA_max;noise_LA01;noise_LA95
63692;Laerm;49838;51.798;10.954;2024-03-06T00:00:10;34.00;28.22;43.41;;
63692;Laerm;49838;51.798;10.954;2024-03-06T00:02:38;30.18;28.05;35.63;;
63692;Laerm;49838;51.798;10.954;2024-03-06T00:05:09;51.73;28.99;68.79;;
63692;Laerm;49838;51.798;10.954;2024-03-06T00:07:36;32.51;28.44;49.87;;
63692;Laerm;49838;51.798;10.954;2024-03-06T00:10:07;34.76;28.46;45.39;;
63692;Laerm;49838;51.798;10.954;2024-03-06T00:12:34;36.91;29.30;47.63;;
63692;Laerm;49838;51.798;10.954;2024-03-06T00:15:02;37.53;29.30;47.20;;
63692;Laerm;49838;51.798;10.954;2024-03-06T00:17:29;54.15;28.85;72.26;;
63692;Laerm;49838;51.798;10.954;2024-03-06T00:19:56;40.24;27.33;55.82;;
63692;Laerm;49838;51.798;10.954;2024-03-06T00:22:25;30.98;27.29;42.96;;
63692;Laerm;49838;51.798;10.954;2024-03-06T00:24:52;35.96;28.77;47.45;;
63692;Laerm;49838;51.798;10.954;2024-03-06T00:27:19;35.75;29.42;44.40;;
63692;Laerm;49838;51.798;10.954;2024-03-06T00:29:46;30.24;28.13;34.44;;
63692;Laerm;49838;51.798;10.954;2024-03-06T00:32:14;32.95;28.31;43.06;;
63692;Laerm;49838;51.798;10.954;2024-03-06T00:34:41;36.31;31.19;48.44;;
63692;Laerm;49838;51.798;10.954;2024-03-06T00:37:08;37.39;30.93;49.51;;
63692;Laerm;49838;51.798;10.954;2024-03-06T00:39:37;36.19;30.85;45.15;;
63692;Laerm;49838;51.798;10.954;2024-03-06T00:42:04;37.37;29.43;51.55;;
63692;Laerm;49838;51.798;10.954;2024-03-06T00:44:31;34.58;28.96;42.80;;
63692;Laerm;49838;51.798;10.954;2024-03-06T00:46:59;52.16;31.09;70.31;;
63692;Laerm;49838;51.798;10.954;2024-03-06T00:49:26;34.73;28.81;44.38;;
63692;Laerm;49838;51.798;10.954;2024-03-06T00:51:53;32.84;28.16;46.49;;
63692;Laerm;49838;51.798;10.954;2024-03-06T00:54:20;30.16;27.73;36.69;;
63692;Laerm;49838;51.798;10.954;2024-03-06T00:56:48;32.19;28.55;45.92;;
63692;Laerm;49838;51.798;10.954;2024-03-06T00:59:16;34.97;29.16;45.50;;
63692;Laerm;49838;51.798;10.954;2024-03-06T01:01:43;36.44;29.21;47.53;;
63692;Laerm;49838;51.798;10.954;2024-03-06T01:04:12;33.40;28.25;59.02;;
63692;Laerm;49838;51.798;10.954;2024-03-06T01:06:39;35.21;29.57;49.01;;
63692;Laerm;49838;51.798;10.954;2024-03-06T01:09:07;32.60;29.50;42.41;;
63692;Laerm;49838;51.798;10.954;2024-03-06T01:11:34;36.14;30.01;46.72;;
63692;Laerm;49838;51.798;10.954;2024-03-06T01:14:02;33.01;29.09;39.94;;
63692;Laerm;49838;51.798;10.954;2024-03-06T01:16:30;40.00;31.58;56.14;;
63692;Laerm;49838;51.798;10.954;2024-03-06T01:18:58;36.00;30.61;47.53;;
63692;Laerm;49838;51.798;10.954;2024-03-06T01:21:25;31.93;27.88;40.15;;
63692;Laerm;49838;51.798;10.954;2024-03-06T01:23:52;31.55;27.90;41.12;;
63692;Laerm;49838;51.798;10.954;2024-03-06T01:26:20;31.69;29.08;38.66;;
63692;Laerm;49838;51.798;10.954;2024-03-06T01:28:48;31.74;29.06;37.03;;
63692;Laerm;49838;51.798;10.954;2024-03-06T01:31:16;30.55;28.16;43.83;;
63692;Laerm;49838;51.798;10.954;2024-03-06T01:33:43;31.73;28.53;40.08;;
63692;Laerm;49838;51.798;10.954;2024-03-06T01:36:11;33.02;28.64;42.25;;
63692;Laerm;49838;51.798;10.954;2024-03-06T01:38:38;31.36;28.30;43.25;;
63692;Laerm;49838;51.798;10.954;2024-03-06T01:41:05;31.58;28.96;39.14;;
63692;Laerm;49838;51.798;10.954;2024-03-06T01:43:37;31.92;28.70;40.23;;
63692;Laerm;49838;51.798;10.954;2024-03-06T01:46:04;33.70;28.57;42.09;;
63692;Laerm;49838;51.798;10.954;2024-03-06T01:48:34;52.27;28.22;70.15;;
63692;Laerm;49838;51.798;10.954;2024-03-06T01:51:02;31.03;28.17;36.00;;
63692;Laerm;49838;51.798;10.954;2024-03-06T01:53:32;33.07;28.68;42.52;;
63692;Laerm;49838;51.798;10.954;2024-03-06T01:56:00;32.45;28.81;40.51;;
63692;Laerm;49838;51.798;10.954;2024-03-06T01:58:28;31.70;28.39;39.52;;
63692;Laerm;49838;51.798;10.954;2024-03-06T02:00:55;33.22;29.65;39.13;;
63692;Laerm;49838;51.798;10.954;2024-03-06T02:03:24;34.72;29.40;48.35;;
63692;Laerm;49838;51.798;10.954;2024-03-06T02:05:53;33.57;29.21;40.95;;
63692;Laerm;49838;51.798;10.954;2024-03-06T02:08:21;30.77;27.80;38.72;;
63692;Laerm;49838;51.798;10.954;2024-03-06T02:10:48;35.44;27.87;42.32;;
63692;Laerm;49838;51.798;10.954;2024-03-06T02:13:16;35.37;30.23;44.01;;
63692;Laerm;49838;51.798;10.954;2024-03-06T02:15:44;33.02;29.72;39.17;;
63692;Laerm;49838;51.798;10.954;2024-03-06T02:18:12;31.85;29.34;35.61;;
63692;Laerm;49838;51.798;10.954;2024-03-06T02:20:40;32.91;29.69;40.90;;
63692;Laerm;49838;51.798;10.954;2024-03-06T02:23:08;33.81;29.30;42.62;;
63692;Laerm;49838;51.798;10.954;2024-03-06T02:25:35;36.47;31.79;43.97;;
63692;Laerm;49838;51.798;10.954;2024-03-06T02:28:03;35.17;30.41;42.37;;
63692;Laerm;49838;51.798;10.954;2024-03-06T02:30:32;33.72;29.53;43.48;;
63692;Laerm;49838;51.798;10.954;2024-03-06T02:33:02;34.02;29.40;43.34;;
63692;Laerm;49838;51.798;10.954;2024-03-06T02:35:32;33.38;29.77;50.65;;
63692;Laerm;49838;51.798;10.954;2024-03-06T02:38:01;33.73;29.38;44.32;;
63692;Laerm;49838;51.798;10.954;2024-03-06T02:40:29;34.33;29.95;43.27;;
63692;Laerm;49838;51.798;10.954;2024-03-06T02:42:56;35.37;31.02;43.20;;
63692;Laerm;49838;51.798;10.954;2024-03-06T02:45:23;36.52;31.72;45.21;;
63692;Laerm;49838;51.798;10.954;2024-03-06T02:47:51;33.89;30.09;41.01;;
63692;Laerm;49838;51.798;10.954;2024-03-06T02:50:18;33.03;29.67;41.47;;
63692;Laerm;49838;51.798;10.954;2024-03-06T02:52:47;33.45;29.31;43.80;;
63692;Laerm;49838;51.798;10.954;2024-03-06T02:55:15;39.25;30.61;54.80;;
63692;Laerm;49838;51.798;10.954;2024-03-06T02:57:43;37.06;32.34;44.28;;
63692;Laerm;49838;51.798;10.954;2024-03-06T03:00:11;36.27;31.07;47.23;;
63692;Laerm;49838;51.798;10.954;2024-03-06T03:02:39;36.44;30.75;46.58;;
63692;Laerm;49838;51.798;10.954;2024-03-06T03:05:07;37.93;31.47;49.48;;
63692;Laerm;49838;51.798;10.954;2024-03-06T03:07:35;39.88;32.06;48.21;;
63692;Laerm;49838;51.798;10.954;2024-03-06T03:10:02;37.67;31.71;44.19;;
63692;Laerm;49838;51.798;10.954;2024-03-06T03:12:32;40.18;34.05;49.85;;
63692;Laerm;49838;51.798;10.954;2024-03-06T03:14:59;38.47;33.57;47.22;;
63692;Laerm;49838;51.798;10.954;2024-03-06T03:17:27;40.00;33.77;59.31;;
63692;Laerm;49838;51.798;10.954;2024-03-06T03:19:54;37.64;32.40;44.61;;
63692;Laerm;49838;51.798;10.954;2024-03-06T03:22:21;36.73;32.42;47.48;;
63692;Laerm;49838;51.798;10.954;2024-03-06T03:24:49;41.00;32.98;54.15;;
63692;Laerm;49838;51.798;10.954;2024-03-06T03:27:16;37.09;31.73;42.45;;
63692;Laerm;49838;51.798;10.954;2024-03-06T03:29:45;38.74;32.15;50.86;;
63692;Laerm;49838;51.798;10.954;2024-03-06T03:32:12;36.81;32.85;42.22;;
63692;Laerm;49838;51.798;10.954;2024-03-06T03:34:40;38.12;32.81;44.65;;
63692;Laerm;49838;51.798;10.954;2024-03-06T03:37:07;38.30;33.15;46.60;;
63692;Laerm;49838;51.798;10.954;2024-03-06T03:39:35;37.36;32.78;51.15;;
63692;Laerm;49838;51.798;10.954;2024-03-06T03:42:02;40.31;32.52;57.13;;
63692;Laerm;49838;51.798;10.954;2024-03-06T03:44:29;38.33;32.48;55.92;;
63692;Laerm;49838;51.798;10.954;2024-03-06T03:46:58;38.67;33.11;50.16;;
63692;Laerm;49838;51.798;10.954;2024-03-06T03:49:25;36.52;32.18;41.55;;
63692;Laerm;49838;51.798;10.954;2024-03-06T03:51:53;38.22;33.43;57.79;;
63692;Laerm;49838;51.798;10.954;2024-03-06T03:54:20;39.05;33.85;45.89;;
63692;Laerm;49838;51.798;10.954;2024-03-06T03:56:47;37.71;33.74;45.42;;
63692;Laerm;49838;51.798;10.954;2024-03-06T03:59:15;37.71;33.49;44.81;;
63692;Laerm;49838;51.798;10.954;2024-03-06T04:01:44;38.85;33.52;51.07;;
63692;Laerm;49838;51.798;10.954;2024-03-06T04:04:13;37.36;32.89;42.38;;
63692;Laerm;49838;51.798;10.954;2024-03-06T04:06:40;42.37;33.62;59.13;;
63692;Laerm;49838;51.798;10.954;2024-03-06T04:09:09;40.34;34.01;57.37;;
63692;Laerm;49838;51.798;10.954;2024-03-06T04:11:37;43.32;37.23;69.57;;
63692;Laerm;49838;51.798;10.954;2024-03-06T04:14:04;54.61;35.69;75.48;;
63692;Laerm;49838;51.798;10.954;2024-03-06T04:16:32;40.51;35.65;50.71;;
63692;Laerm;49838;51.798;10.954;2024-03-06T04:19:01;52.85;35.47;71.07;;
63692;Laerm;49838;51.798;10.954;2024-03-06T04:21:31;40.92;36.14;47.16;;
63692;Laerm;49838;51.798;10.954;2024-03-06T04:23:58;41.81;35.92;70.74;;
63692;Laerm;49838;51.798;10.954;2024-03-06T04:26:25;51.00;36.25;68.62;;
63692;Laerm;49838;51.798;10.954;2024-03-06T04:28:53;54.75;35.48;71.12;;
63692;Laerm;49838;51.798;10.954;2024-03-06T04:31:20;41.30;35.09;58.58;;
63692;Laerm;49838;51.798;10.954;2024-03-06T04:33:47;51.70;35.94;70.57;;
63692;Laerm;49838;51.798;10.954;2024-03-06T04:36:14;39.65;35.58;51.11;;
63692;Laerm;49838;51.798;10.954;2024-03-06T04:38:44;49.15;36.32;66.75;;
63692;Laerm;49838;51.798;10.954;2024-03-06T04:41:11;40.86;36.08;51.93;;
63692;Laerm;49838;51.798;10.954;2024-03-06T04:43:38;54.54;35.79;71.90;;
63692;Laerm;49838;51.798;10.954;2024-03-06T04:46:06;45.02;35.71;59.02;;
63692;Laerm;49838;51.798;10.954;2024-03-06T04:48:39;51.10;36.48;68.40;;
63692;Laerm;49838;51.798;10.954;2024-03-06T04:51:06;47.63;35.38;64.36;;
63692;Laerm;49838;51.798;10.954;2024-03-06T04:53:35;39.93;35.11;55.79;;
63692;Laerm;49838;51.798;10.954;2024-03-06T04:56:05;55.32;35.31;72.15;;
63692;Laerm;49838;51.798;10.954;2024-03-06T04:58:33;54.58;35.48;71.93;;
63692;Laerm;49838;51.798;10.954;2024-03-06T05:01:00;45.94;35.77;59.45;;
63692;Laerm;49838;51.798;10.954;2024-03-06T05:03:29;53.83;35.56;79.11;;
63692;Laerm;49838;51.798;10.954;2024-03-06T05:05:56;59.37;40.65;77.81;;
63692;Laerm;49838;51.798;10.954;2024-03-06T05:08:24;42.95;39.24;59.86;;
63692;Laerm;49838;51.798;10.954;2024-03-06T05:10:51;53.62;40.22;70.65;;
63692;Laerm;49838;51.798;10.954;2024-03-06T05:13:20;48.82;37.84;64.79;;
63692;Laerm;49838;51.798;10.954;2024-03-06T05:15:48;59.23;39.19;76.27;;
63692;Laerm;49838;51.798;10.954;2024-03-06T05:18:15;44.57;38.18;58.53;;
63692;Laerm;49838;51.798;10.954;2024-03-06T05:20:42;58.17;39.59;74.83;;
63692;Laerm;49838;51.798;10.954;2024-03-06T05:23:10;52.29;39.20;69.43;;
63692;Laerm;49838;51.798;10.954;2024-03-06T05:25:38;56.73;40.79;72.94;;
63692;Laerm;49838;51.798;10.954;2024-03-06T05:28:06;51.98;40.07;71.05;;
63692;Laerm;49838;51.798;10.954;2024-03-06T05:30:35;54.48;40.30;69.56;;
63692;Laerm;49838;51.798;10.954;2024-03-06T05:33:03;57.37;40.15;73.10;;
63692;Laerm;49838;51.798;10.954;2024-03-06T05:35:30;54.69;41.70;69.47;;
63692;Laerm;49838;51.798;10.954;2024-03-06T05:37:57;56.24;40.87;72.59;;
63692;Laerm;49838;51.798;10.954;2024-03-06T05:40:24;58.02;40.05;70.91;;
63692;Laerm;49838;51.798;10.954;2024-03-06T05:42:52;52.73;40.21;70.74;;
63692;Laerm;49838;51.798;10.954;2024-03-06T05:45:19;58.28;40.05;75.73;;
63692;Laerm;49838;51.798;10.954;2024-03-06T05:47:48;55.20;41.63;72.99;;
63692;Laerm;49838;51.798;10.954;2024-03-06T05:50:16;57.48;40.96;76.07;;
63692;Laerm;49838;51.798;10.954;2024-03-06T05:52:44;59.40;42.71;76.49;;
63692;Laerm;49838;51.798;10.954;2024-03-06T05:55:11;53.90;40.71;73.13;;
63692;Laerm;49838;51.798;10.954;2024-03-06T05:57:38;59.30;41.93;76.47;;
63692;Laerm;49838;51.798;10.954;2024-03-06T06:00:12;60.21;43.02;76.48;;
63692;Laerm;49838;51.798;10.954;2024-03-06T06:02:41;56.06;42.79;71.46;;
63692;Laerm;49838;51.798;10.954;2024-03-06T06:05:09;60.09;42.72;76.33;;
63692;Laerm;49838;51.798;10.954;2024-03-06T06:07:37;58.36;44.19;73.00;;
63692;Laerm;49838;51.798;10.954;2024-03-06T06:10:05;47.11;42.25;55.38;;
63692;Laerm;49838;51.798;10.954;2024-03-06T06:12:36;61.45;46.10;77.80;;
63692;Laerm;49838;51.798;10.954;2024-03-06T06:15:04;62.00;45.17;74.13;;
63692;Laerm;49838;51.798;10.954;2024-03-06T06:17:33;56.86;43.54;71.05;;
63692;Laerm;49838;51.798;10.954;2024-03-06T06:20:01;62.19;44.48;77.09;;
63692;Laerm;49838;51.798;10.954;2024-03-06T06:22:29;64.58;43.74;81.15;;
63692;Laerm;49838;51.798;10.954;2024-03-06T06:24:56;61.25;46.26;76.71;;
63692;Laerm;49838;51.798;10.954;2024-03-06T06:27:24;69.85;44.85;83.07;;
63692;Laerm;49838;51.798;10.954;2024-03-06T06:29:51;58.75;43.57;72.78;;
63692;Laerm;49838;51.798;10.954;2024-03-06T06:32:21;61.07;43.88;76.60;;
63692;Laerm;49838;51.798;10.954;2024-03-06T06:34:48;60.67;43.45;75.50;;
63692;Laerm;49838;51.798;10.954;2024-03-06T06:37:15;63.12;42.68;74.02;;
63692;Laerm;49838;51.798;10.954;2024-03-06T06:39:45;57.76;42.97;70.96;;
63692;Laerm;49838;51.798;10.954;2024-03-06T06:42:12;53.45;42.71;68.52;;
63692;Laerm;49838;51.798;10.954;2024-03-06T06:44:40;58.67;42.37;73.28;;
63692;Laerm;49838;51.798;10.954;2024-03-06T06:47:07;57.42;43.95;72.22;;
63692;Laerm;49838;51.798;10.954;2024-03-06T06:49:35;58.66;44.02;73.06;;
63692;Laerm;49838;51.798;10.954;2024-03-06T06:52:02;57.21;43.26;73.05;;
63692;Laerm;49838;51.798;10.954;2024-03-06T06:54:30;60.60;43.92;76.41;;
63692;Laerm;49838;51.798;10.954;2024-03-06T06:56:58;59.31;44.22;72.27;;
63692;Laerm;49838;51.798;10.954;2024-03-06T06:59:26;59.44;41.24;72.96;;
63692;Laerm;49838;51.798;10.954;2024-03-06T07:01:54;62.98;44.56;74.97;;
63692;Laerm;49838;51.798;10.954;2024-03-06T07:04:21;59.03;44.34;77.65;;
63692;Laerm;49838;51.798;10.954;2024-03-06T07:06:50;56.17;44.07;72.79;;
63692;Laerm;49838;51.798;10.954;2024-03-06T07:09:18;57.48;40.62;74.63;;
63692;Laerm;49838;51.798;10.954;2024-03-06T07:11:45;60.70;40.72;82.25;;
63692;Laerm;49838;51.798;10.954;2024-03-06T07:14:15;58.82;40.22;72.63;;
63692;Laerm;49838;51.798;10.954;2024-03-06T07:16:42;57.71;40.92;71.24;;
63692;Laerm;49838;51.798;10.954;2024-03-06T07:19:10;57.83;40.39;75.12;;
63692;Laerm;49838;51.798;10.954;2024-03-06T07:21:37;54.68;40.24;70.41;;
63692;Laerm;49838;51.798;10.954;2024-03-06T07:24:05;56.36;41.47;67.32;;
63692;Laerm;49838;51.798;10.954;2024-03-06T07:26:32;55.64;39.08;70.56;;
63692;Laerm;49838;51.798;10.954;2024-03-06T07:29:00;61.28;40.40;79.11;;
63692;Laerm;49838;51.798;10.954;2024-03-06T07:31:29;57.39;40.43;70.63;;
63692;Laerm;49838;51.798;10.954;2024-03-06T07:33:58;59.93;39.71;78.11;;
63692;Laerm;49838;51.798;10.954;2024-03-06T07:36:25;50.03;40.17;65.17;;
63692;Laerm;49838;51.798;10.954;2024-03-06T07:38:52;53.33;39.09;68.49;;
63692;Laerm;49838;51.798;10.954;2024-03-06T07:41:20;48.99;38.72;64.82;;
63692;Laerm;49838;51.798;10.954;2024-03-06T07:43:48;54.52;39.45;71.22;;
63692;Laerm;49838;51.798;10.954;2024-03-06T07:46:15;58.90;40.06;73.01;;
63692;Laerm;49838;51.798;10.954;2024-03-06T07:48:44;55.11;38.83;70.99;;
63692;Laerm;49838;51.798;10.954;2024-03-06T07:51:11;54.83;37.11;71.33;;
63692;Laerm;49838;51.798;10.954;2024-03-06T07:53:38;58.13;38.92;73.28;;
63692;Laerm;49838;51.798;10.954;2024-03-06T07:56:09;60.77;39.09;76.57;;
63692;Laerm;49838;51.798;10.954;2024-03-06T07:58:37;57.22;39.84;74.54;;
63692;Laerm;49838;51.798;10.954;2024-03-06T08:01:07;57.49;39.96;71.07;;
63692;Laerm;49838;51.798;10.954;2024-03-06T08:03:34;55.49;40.30;70.47;;
63692;Laerm;49838;51.798;10.954;2024-03-06T08:06:06;62.91;40.35;81.32;;
63692;Laerm;49838;51.798;10.954;2024-03-06T08:08:33;55.28;39.48;70.38;;
63692;Laerm;49838;51.798;10.954;2024-03-06T08:11:01;59.25;40.61;75.47;;
63692;Laerm;49838;51.798;10.954;2024-03-06T08:13:28;55.66;38.35;69.53;;
63692;Laerm;49838;51.798;10.954;2024-03-06T08:15:55;56.22;41.36;73.28;;
63692;Laerm;49838;51.798;10.954;2024-03-06T08:18:22;58.59;39.98;73.99;;
63692;Laerm;49838;51.798;10.954;2024-03-06T08:20:49;61.11;40.64;77.97;;
63692;Laerm;49838;51.798;10.954;2024-03-06T08:23:18;56.44;41.57;72.22;;
63692;Laerm;49838;51.798;10.954;2024-03-06T08:25:45;58.45;38.54;74.48;;
63692;Laerm;49838;51.798;10.954;2024-03-06T08:28:13;60.63;42.03;81.13;;
63692;Laerm;49838;51.798;10.954;2024-03-06T08:30:40;57.26;38.94;72.48;;
63692;Laerm;49838;51.798;10.954;2024-03-06T08:33:07;56.37;39.55;69.59;;
63692;Laerm;49838;51.798;10.954;2024-03-06T08:35:35;61.09;41.38;77.30;;
63692;Laerm;49838;51.798;10.954;2024-03-06T08:38:02;57.93;40.10;78.31;;
63692;Laerm;49838;51.798;10.954;2024-03-06T08:40:31;57.94;39.50;71.10;;
63692;Laerm;49838;51.798;10.954;2024-03-06T08:42:59;49.50;38.97;65.79;;
63692;Laerm;49838;51.798;10.954;2024-03-06T08:45:26;53.48;39.40;67.37;;
63692;Laerm;49838;51.798;10.954;2024-03-06T08:47:54;60.31;40.48;74.57;;
63692;Laerm;49838;51.798;10.954;2024-03-06T08:50:21;60.28;40.88;74.92;;
63692;Laerm;49838;51.798;10.954;2024-03-06T08:52:48;57.28;39.01;71.65;;
63692;Laerm;49838;51.798;10.954;2024-03-06T08:55:15;58.35;39.16;72.72;;
63692;Laerm;49838;51.798;10.954;2024-03-06T08:57:44;57.23;41.92;70.02;;
63692;Laerm;49838;51.798;10.954;2024-03-06T09:00:12;56.38;38.41;71.69;;
63692;Laerm;49838;51.798;10.954;2024-03-06T09:02:40;51.98;39.80;69.75;;
63692;Laerm;49838;51.798;10.954;2024-03-06T09:05:08;65.33;39.10;82.58;;
63692;Laerm;49838;51.798;10.954;2024-03-06T09:07:36;59.91;40.70;72.81;;
63692;Laerm;49838;51.798;10.954;2024-03-06T09:10:07;57.44;40.18;71.09;;
63692;Laerm;49838;51.798;10.954;2024-03-06T09:12:34;60.25;39.74;83.74;;
63692;Laerm;49838;51.798;10.954;2024-03-06T09:15:04;58.29;38.42;72.72;;
63692;Laerm;49838;51.798;10.954;2024-03-06T09:17:33;52.66;38.73;68.29;;
63692;Laerm;49838;51.798;10.954;2024-03-06T09:20:00;59.62;38.47;77.59;;
63692;Laerm;49838;51.798;10.954;2024-03-06T09:22:36;55.42;39.66;67.34;;
63692;Laerm;49838;51.798;10.954;2024-03-06T09:25:05;60.66;39.25;75.68;;
63692;Laerm;49838;51.798;10.954;2024-03-06T09:27:32;57.62;41.11;71.82;;
63692;Laerm;49838;51.798;10.954;2024-03-06T09:30:00;59.11;43.08;73.66;;
63692;Laerm;49838;51.798;10.954;2024-03-06T09:32:30;57.68;39.25;73.23;;
63692;Laerm;49838;51.798;10.954;2024-03-06T09:34:58;61.56;39.64;72.30;;
63692;Laerm;49838;51.798;10.954;2024-03-06T09:37:25;50.82;39.23;70.30;;
63692;Laerm;49838;51.798;10.954;2024-03-06T09:39:53;56.39;38.27;71.94;;
63692;Laerm;49838;51.798;10.954;2024-03-06T09:42:22;58.79;39.29;80.40;;
63692;Laerm;49838;51.798;10.954;2024-03-06T09:44:49;62.82;38.74;78.13;;
63692;Laerm;49838;51.798;10.954;2024-03-06T09:47:21;58.14;38.81;74.25;;
63692;Laerm;49838;51.798;10.954;2024-03-06T09:49:51;57.79;39.46;74.11;;
63692;Laerm;49838;51.798;10.954;2024-03-06T09:52:19;57.92;39.43;71.81;;
63692;Laerm;49838;51.798;10.954;2024-03-06T09:54:47;69.68;44.43;82.35;;
63692;Laerm;49838;51.798;10.954;2024-03-06T09:57:15;62.33;40.71;78.66;;
63692;Laerm;49838;51.798;10.954;2024-03-06T09:59:42;57.08;38.80;72.88;;
63692;Laerm;49838;51.798;10.954;2024-03-06T10:02:18;58.31;38.99;72.00;;
63692;Laerm;49838;51.798;10.954;2024-03-06T10:04:48;56.64;37.90;71.14;;
63692;Laerm;49838;51.798;10.954;2024-03-06T10:07:17;60.74;40.15;74.73;;
63692;Laerm;49838;51.798;10.954;2024-03-06T10:09:46;60.28;39.65;75.56;;
63692;Laerm;49838;51.798;10.954;2024-03-06T10:12:17;55.32;40.22;77.22;;
63692;Laerm;49838;51.798;10.954;2024-03-06T10:14:49;58.60;41.25;69.80;;
63692;Laerm;49838;51.798;10.954;2024-03-06T10:17:19;59.94;40.29;75.56;;
63692;Laerm;49838;51.798;10.954;2024-03-06T10:19:49;60.94;43.55;77.60;;
63692;Laerm;49838;51.798;10.954;2024-03-06T10:22:19;57.61;42.95;72.87;;
63692;Laerm;49838;51.798;10.954;2024-03-06T10:24:46;59.51;39.93;73.38;;
63692;Laerm;49838;51.798;10.954;2024-03-06T10:27:15;55.45;40.71;71.57;;
63692;Laerm;49838;51.798;10.954;2024-03-06T10:29:42;54.47;40.08;72.07;;
63692;Laerm;49838;51.798;10.954;2024-03-06T10:32:10;57.50;41.79;72.26;;
63692;Laerm;49838;51.798;10.954;2024-03-06T10:34:38;55.40;42.28;70.39;;
63692;Laerm;49838;51.798;10.954;2024-03-06T10:37:06;63.64;42.62;80.26;;
63692;Laerm;49838;51.798;10.954;2024-03-06T10:39:35;58.87;41.78;76.24;;
63692;Laerm;49838;51.798;10.954;2024-03-06T10:42:07;60.60;41.68;77.48;;
63692;Laerm;49838;51.798;10.954;2024-03-06T10:44:35;59.46;40.18;76.48;;
63692;Laerm;49838;51.798;10.954;2024-03-06T10:47:05;59.42;40.10;72.71;;
63692;Laerm;49838;51.798;10.954;2024-03-06T10:49:35;55.99;40.51;69.70;;
63692;Laerm;49838;51.798;10.954;2024-03-06T10:52:04;53.42;39.88;70.96;;
63692;Laerm;49838;51.798;10.954;2024-03-06T10:54:34;54.38;41.43;69.67;;
63692;Laerm;49838;51.798;10.954;2024-03-06T10:57:05;78.87;42.52;102.83;;
63692;Laerm;49838;51.798;10.954;2024-03-06T10:59:34;52.44;39.22;68.20;;
63692;Laerm;49838;51.798;10.954;2024-03-06T11:02:02;58.27;40.37;71.44;;
63692;Laerm;49838;51.798;10.954;2024-03-06T11:04:34;56.08;40.07;70.77;;
63692;Laerm;49838;51.798;10.954;2024-03-06T11:07:03;67.08;40.38;90.13;;
63692;Laerm;49838;51.798;10.954;2024-03-06T11:09:33;60.40;37.68;80.04;;
63692;Laerm;49838;51.798;10.954;2024-03-06T11:12:04;59.10;37.47;83.23;;
63692;Laerm;49838;51.798;10.954;2024-03-06T11:14:36;58.92;36.93;78.32;;
63692;Laerm;49838;51.798;10.954;2024-03-06T11:17:04;53.24;36.34;70.80;;
63692;Laerm;49838;51.798;10.954;2024-03-06T11:20:08;61.59;39.40;80.70;;
63692;Laerm;49838;51.798;10.954;2024-03-06T11:26:04;60.87;38.70;73.21;;
63692;Laerm;49838;51.798;10.954;2024-03-06T11:28:34;57.82;35.03;72.83;;
63692;Laerm;49838;51.798;10.954;2024-03-06T11:31:05;53.44;38.59;70.64;;
63692;Laerm;49838;51.798;10.954;2024-03-06T11:33:36;61.39;38.18;78.85;;
63692;Laerm;49838;51.798;10.954;2024-03-06T11:36:18;57.93;36.07;80.28;;
63692;Laerm;49838;51.798;10.954;2024-03-06T11:38:52;55.46;37.63;71.60;;
63692;Laerm;49838;51.798;10.954;2024-03-06T11:41:21;52.92;36.67;71.07;;
63692;Laerm;49838;51.798;10.954;2024-03-06T11:43:52;58.28;39.33;73.70;;
63692;Laerm;49838;51.798;10.954;2024-03-06T11:46:22;55.59;38.94;72.54;;
63692;Laerm;49838;51.798;10.954;2024-03-06T11:48:53;59.68;38.27;79.18;;
63692;Laerm;49838;51.798;10.954;2024-03-06T11:51:22;59.56;39.53;75.24;;
63692;Laerm;49838;51.798;10.954;2024-03-06T11:53:50;53.00;39.26;71.41;;
63692;Laerm;49838;51.798;10.954;2024-03-06T11:56:18;57.77;38.82;71.14;;
63692;Laerm;49838;51.798;10.954;2024-03-06T11:58:46;57.06;39.48;72.56;;
63692;Laerm;49838;51.798;10.954;2024-03-06T12:01:15;57.11;39.75;75.53;;
63692;Laerm;49838;51.798;10.954;2024-03-06T12:03:44;59.88;39.69;83.68;;
63692;Laerm;49838;51.798;10.954;2024-03-06T12:06:11;52.86;40.35;70.57;;
63692;Laerm;49838;51.798;10.954;2024-03-06T12:08:39;55.23;39.15;72.87;;
63692;Laerm;49838;51.798;10.954;2024-03-06T12:11:07;55.66;40.25;72.39;;
63692;Laerm;49838;51.798;10.954;2024-03-06T12:13:34;57.60;40.20;72.04;;
63692;Laerm;49838;51.798;10.954;2024-03-06T12:16:05;54.81;38.66;72.12;;
63692;Laerm;49838;51.798;10.954;2024-03-06T12:18:34;63.87;38.23;78.98;;
63692;Laerm;49838;51.798;10.954;2024-03-06T12:21:02;58.41;39.72;74.50;;
63692;Laerm;49838;51.798;10.954;2024-03-06T12:23:31;54.01;41.97;71.31;;
63692;Laerm;49838;51.798;10.954;2024-03-06T12:26:05;58.08;41.76;71.76;;
63692;Laerm;49838;51.798;10.954;2024-03-06T12:28:35;58.48;42.36;78.33;;
63692;Laerm;49838;51.798;10.954;2024-03-06T12:31:03;56.86;38.62;76.04;;
63692;Laerm;49838;51.798;10.954;2024-03-06T12:33:31;62.21;42.84;78.26;;
63692;Laerm;49838;51.798;10.954;2024-03-06T12:36:05;55.06;39.40;69.44;;
63692;Laerm;49838;51.798;10.954;2024-03-06T12:38:36;56.42;38.80;70.74;;
63692;Laerm;49838;51.798;10.954;2024-03-06T12:41:03;48.07;38.02;63.12;;
63692;Laerm;49838;51.798;10.954;2024-03-06T12:43:32;59.98;39.38;74.41;;
63692;Laerm;49838;51.798;10.954;2024-03-06T12:46:00;59.69;37.65;72.61;;
63692;Laerm;49838;51.798;10.954;2024-03-06T12:48:29;56.20;38.25;72.19;;
63692;Laerm;49838;51.798;10.954;2024-03-06T12:50:57;60.17;38.30;76.85;;
63692;Laerm;49838;51.798;10.954;2024-03-06T12:53:32;61.36;38.67;88.17;;
63692;Laerm;49838;51.798;10.954;2024-03-06T12:56:01;57.83;36.57;75.23;;
63692;Laerm;49838;51.798;10.954;2024-03-06T12:58:28;54.72;38.68;70.25;;
63692;Laerm;49838;51.798;10.954;2024-03-06T13:00:57;53.24;39.47;69.03;;
63692;Laerm;49838;51.798;10.954;2024-03-06T13:03:24;53.76;37.30;73.06;;
63692;Laerm;49838;51.798;10.954;2024-03-06T13:05:51;56.87;37.67;75.42;;
63692;Laerm;49838;51.798;10.954;2024-03-06T13:08:19;59.90;39.96;75.65;;
63692;Laerm;49838;51.798;10.954;2024-03-06T13:10:47;59.19;39.09;76.07;;
63692;Laerm;49838;51.798;10.954;2024-03-06T13:13:15;47.61;38.93;61.36;;
63692;Laerm;49838;51.798;10.954;2024-03-06T13:15:42;55.88;41.47;72.43;;
63692;Laerm;49838;51.798;10.954;2024-03-06T13:18:09;59.89;41.13;74.50;;
63692;Laerm;49838;51.798;10.954;2024-03-06T13:20:36;56.69;40.74;70.83;;
63692;Laerm;49838;51.798;10.954;2024-03-06T13:23:04;58.06;44.05;70.20;;
63692;Laerm;49838;51.798;10.954;2024-03-06T13:25:31;53.10;42.38;66.71;;
63692;Laerm;49838;51.798;10.954;2024-03-06T13:28:00;55.36;40.61;73.94;;
63692;Laerm;49838;51.798;10.954;2024-03-06T13:30:27;46.06;41.74;54.51;;
63692;Laerm;49838;51.798;10.954;2024-03-06T13:32:55;62.70;40.09;80.63;;
63692;Laerm;49838;51.798;10.954;2024-03-06T13:35:22;60.77;41.90;78.70;;
63692;Laerm;49838;51.798;10.954;2024-03-06T13:37:49;57.53;43.67;71.87;;
63692;Laerm;49838;51.798;10.954;2024-03-06T13:40:17;53.16;43.15;67.14;;